createdAt,value
2023-05-14T00:02:03.897Z,15.10
2023-05-14T00:04:32.510Z,13.77
2023-05-14T00:07:01.152Z,14.20
2023-05-14T00:09:30.460Z,13.90
2023-05-14T00:11:59.031Z,13.00
2023-05-14T00:14:27.245Z,13.00
2023-05-14T00:16:55.986Z,12.00
2023-05-14T00:19:24.570Z,12.68
2023-05-14T00:21:53.460Z,12.23
2023-05-14T00:24:21.716Z,12.85
2023-05-14T00:26:50.274Z,12.90
2023-05-14T00:29:18.495Z,12.68
2023-05-14T00:31:50.228Z,12.57
2023-05-14T00:34:19.768Z,13.98
2023-05-14T00:36:52.104Z,14.02
2023-05-14T00:39:26.331Z,14.02
2023-05-14T00:41:54.933Z,15.88
2023-05-14T00:44:23.326Z,19.70
2023-05-14T00:46:53.169Z,20.27
2023-05-14T00:49:21.712Z,18.50
2023-05-14T00:51:50.300Z,17.00
2023-05-14T00:54:19.773Z,16.27
2023-05-14T00:56:48.750Z,14.20
2023-05-14T00:59:17.110Z,15.10
2023-05-14T01:01:45.929Z,14.00
2023-05-14T01:04:14.500Z,14.38
2023-05-14T01:07:01.684Z,15.25
2023-05-14T01:09:46.371Z,14.10
2023-05-14T01:12:45.377Z,14.15
2023-05-14T01:15:30.815Z,19.17
2023-05-14T01:18:07.991Z,18.20
2023-05-14T01:20:36.766Z,18.05
2023-05-14T01:23:05.456Z,17.42
2023-05-14T01:25:34.011Z,16.58
2023-05-14T01:28:17.979Z,17.40
2023-05-14T01:31:17.910Z,16.77
2023-05-14T01:33:49.092Z,17.67
2023-05-14T01:36:18.299Z,17.98
2023-05-14T01:38:49.709Z,19.50
2023-05-14T01:41:19.600Z,19.05
2023-05-14T01:43:48.612Z,18.65
2023-05-14T01:46:20.488Z,18.45
2023-05-14T01:48:50.163Z,19.83
2023-05-14T01:51:18.540Z,19.98
2023-05-14T01:53:47.169Z,18.95
2023-05-14T01:56:15.431Z,18.92
2023-05-14T01:58:44.088Z,17.55
2023-05-14T02:01:12.588Z,17.40
2023-05-14T02:03:41.243Z,17.30
2023-05-14T02:06:09.510Z,16.02
2023-05-14T02:08:38.069Z,16.80
2023-05-14T02:11:06.348Z,16.25
2023-05-14T02:13:36.321Z,16.08
2023-05-14T02:16:05.025Z,16.05
2023-05-14T02:18:33.792Z,18.50
2023-05-14T02:21:02.201Z,18.10
2023-05-14T02:23:40.563Z,19.60
2023-05-14T02:26:11.767Z,19.42
2023-05-14T02:28:40.494Z,19.17
2023-05-14T02:31:08.899Z,18.60
2023-05-14T02:33:37.474Z,19.55
2023-05-14T02:36:06.168Z,19.85
2023-05-14T02:38:35.251Z,18.75
2023-05-14T02:41:03.508Z,19.10
2023-05-14T02:43:32.299Z,18.70
2023-05-14T02:46:00.578Z,17.48
2023-05-14T02:48:29.572Z,17.92
2023-05-14T02:50:57.958Z,15.88
2023-05-14T02:53:26.793Z,15.05
2023-05-14T02:55:55.184Z,14.82
2023-05-14T02:58:25.912Z,14.50
2023-05-14T03:00:57.194Z,14.63
2023-05-14T03:03:26.549Z,14.05
2023-05-14T03:05:55.417Z,14.52
2023-05-14T03:08:24.038Z,14.32
2023-05-14T03:10:52.278Z,14.50
2023-05-14T03:13:20.911Z,15.20
2023-05-14T03:15:49.677Z,14.35
2023-05-14T03:18:18.939Z,14.98
2023-05-14T03:20:47.839Z,15.70
2023-05-14T03:23:16.814Z,16.58
2023-05-14T03:25:45.088Z,16.30
2023-05-14T03:28:13.643Z,15.55
2023-05-14T03:30:41.970Z,16.35
2023-05-14T03:33:12.681Z,16.73
2023-05-14T03:35:41.070Z,16.67
2023-05-14T03:38:09.872Z,15.48
2023-05-14T03:40:38.078Z,16.58
2023-05-14T03:43:06.800Z,16.15
2023-05-14T03:45:35.402Z,15.43
2023-05-14T03:48:04.442Z,15.85
2023-05-14T03:50:33.907Z,16.30
2023-05-14T03:53:02.708Z,16.45
2023-05-14T03:55:31.652Z,16.15
2023-05-14T03:58:02.174Z,16.27
2023-05-14T04:00:30.957Z,17.20
2023-05-14T04:02:59.579Z,17.33
2023-05-14T04:05:27.924Z,19.73
2023-05-14T04:07:58.314Z,23.10
2023-05-14T04:10:26.795Z,23.55
2023-05-14T04:12:55.851Z,26.27
2023-05-14T04:15:28.504Z,24.98
2023-05-14T04:17:57.218Z,19.90
2023-05-14T04:20:25.945Z,18.75
2023-05-14T04:22:54.692Z,18.60
2023-05-14T04:25:23.875Z,21.65
2023-05-14T04:27:52.450Z,22.15
2023-05-14T04:30:21.489Z,21.73
2023-05-14T04:32:50.599Z,21.10
2023-05-14T04:35:22.074Z,20.38
2023-05-14T04:37:52.017Z,19.20
2023-05-14T04:40:20.332Z,20.80
2023-05-14T04:42:48.862Z,21.05
2023-05-14T04:45:17.268Z,21.73
2023-05-14T04:47:46.850Z,19.88
2023-05-14T04:50:15.453Z,19.85
2023-05-14T04:52:44.284Z,19.70
2023-05-14T04:55:12.498Z,19.80
2023-05-14T04:57:41.056Z,18.50
2023-05-14T05:00:10.258Z,19.00
2023-05-14T05:02:39.090Z,19.42
2023-05-14T05:05:07.739Z,20.38
2023-05-14T05:07:36.438Z,21.08
2023-05-14T05:10:04.935Z,20.42
2023-05-14T05:12:35.375Z,21.35
2023-05-14T05:15:03.777Z,21.35
2023-05-14T05:17:32.458Z,21.10
2023-05-14T05:20:00.779Z,21.33
2023-05-14T05:22:29.433Z,19.75
2023-05-14T05:24:58.818Z,19.98
2023-05-14T05:27:27.619Z,20.00
2023-05-14T05:29:55.849Z,19.50
2023-05-14T05:32:25.272Z,18.42
2023-05-14T05:34:53.593Z,18.52
2023-05-14T05:37:22.332Z,18.23
2023-05-14T05:39:51.087Z,17.30
2023-05-14T05:42:19.749Z,17.13
2023-05-14T05:44:48.304Z,17.38
2023-05-14T05:47:17.290Z,15.65
2023-05-14T05:49:45.602Z,15.32
2023-05-14T05:52:14.138Z,15.15
2023-05-14T05:54:42.383Z,16.83
2023-05-14T05:57:10.965Z,16.58
2023-05-14T05:59:39.212Z,14.70
2023-05-14T06:02:07.819Z,14.20
2023-05-14T06:04:36.319Z,14.50
2023-05-14T06:07:05.185Z,13.68
2023-05-14T06:09:33.496Z,14.38
2023-05-14T06:12:02.276Z,13.80
2023-05-14T06:14:30.760Z,13.38
2023-05-14T06:16:59.366Z,13.20
2023-05-14T06:19:27.649Z,13.25
2023-05-14T06:21:56.220Z,12.27
2023-05-14T06:24:24.537Z,12.48
2023-05-14T06:26:53.329Z,11.43
2023-05-14T06:29:21.562Z,11.35
2023-05-14T06:31:50.182Z,9.98
2023-05-14T06:34:18.533Z,11.00
2023-05-14T06:36:47.653Z,10.98
2023-05-14T06:39:15.994Z,10.70
2023-05-14T06:41:44.810Z,10.98
2023-05-14T06:44:19.781Z,10.02
2023-05-14T06:46:48.434Z,8.98
2023-05-14T06:49:16.795Z,8.93
2023-05-14T06:51:46.140Z,8.75
2023-05-14T06:54:14.509Z,8.70
2023-05-14T06:56:43.467Z,8.75
2023-05-14T06:59:11.848Z,8.13
2023-05-14T07:01:40.949Z,8.10
2023-05-14T07:04:09.471Z,8.65
2023-05-14T07:06:38.361Z,7.85
2023-05-14T07:09:07.260Z,7.82
2023-05-14T07:12:27.492Z,8.63
2023-05-14T07:14:57.081Z,8.30
2023-05-14T07:17:28.933Z,8.63
2023-05-14T07:20:00.874Z,8.45
2023-05-14T07:22:29.444Z,8.48
2023-05-14T07:25:47.753Z,8.13
2023-05-14T07:28:16.342Z,7.63
2023-05-14T07:30:44.639Z,8.30
2023-05-14T07:33:13.377Z,8.50
2023-05-14T07:35:42.004Z,8.55
2023-05-14T07:38:10.890Z,7.03
2023-05-14T07:40:40.042Z,7.68
2023-05-14T07:43:08.566Z,7.28
2023-05-14T07:45:41.832Z,7.35
2023-05-14T07:50:40.909Z,6.40
2023-05-14T07:53:09.584Z,6.97
2023-05-14T07:55:37.775Z,6.05
2023-05-14T07:58:06.760Z,6.15
2023-05-14T08:00:35.034Z,6.85
2023-05-14T08:03:03.907Z,5.97
2023-05-14T08:05:57.764Z,5.88
2023-05-14T08:08:27.453Z,6.07
2023-05-14T08:11:22.907Z,6.28
2023-05-14T08:13:51.709Z,6.22
2023-05-14T08:16:20.207Z,5.95
2023-05-14T08:18:48.794Z,6.05
2023-05-14T08:21:17.108Z,5.93
2023-05-14T08:23:45.688Z,5.85
2023-05-14T08:26:16.290Z,5.30
2023-05-14T08:28:44.912Z,5.53
2023-05-14T08:31:14.697Z,5.95
2023-05-14T08:33:43.822Z,5.20
2023-05-14T08:36:12.070Z,5.40
2023-05-14T08:38:40.975Z,5.30
2023-05-14T08:41:12.978Z,5.70
2023-05-14T08:44:01.707Z,4.93
2023-05-14T08:46:33.957Z,4.50
2023-05-14T08:49:44.041Z,4.18
2023-05-14T08:52:22.477Z,4.10
2023-05-14T08:54:54.025Z,5.28
2023-05-14T08:57:24.890Z,4.63
2023-05-14T08:59:56.015Z,4.55
2023-05-14T09:02:28.428Z,4.20
2023-05-14T09:05:00.189Z,4.60
2023-05-14T09:07:28.675Z,4.30
2023-05-14T09:09:57.208Z,4.68
2023-05-14T09:12:26.329Z,4.65
2023-05-14T09:14:55.121Z,4.13
2023-05-14T09:17:27.296Z,4.60
2023-05-14T09:20:06.285Z,4.85
2023-05-14T09:22:35.777Z,4.00
2023-05-14T09:25:06.722Z,3.90
2023-05-14T09:27:36.794Z,3.90
2023-05-14T09:30:13.117Z,4.40
2023-05-14T09:32:46.514Z,4.35
2023-05-14T09:35:20.934Z,4.00
2023-05-14T09:37:51.515Z,4.30
2023-05-14T09:40:25.947Z,4.53
2023-05-14T09:42:54.762Z,5.10
2023-05-14T09:45:26.858Z,3.70
2023-05-14T09:48:22.771Z,3.80
2023-05-14T09:50:52.306Z,4.50
2023-05-14T09:53:21.777Z,4.43
2023-05-14T09:55:50.861Z,3.40
2023-05-14T09:58:19.240Z,3.85
2023-05-14T10:00:48.091Z,4.07
2023-05-14T10:03:19.949Z,3.83
2023-05-14T10:05:49.967Z,3.72
2023-05-14T10:08:33.818Z,4.20
2023-05-14T10:11:08.482Z,6.43
2023-05-14T10:13:39.792Z,4.10
2023-05-14T10:16:24.754Z,4.13
2023-05-14T10:19:00.699Z,3.80
2023-05-14T10:21:31.996Z,3.90
2023-05-14T10:24:00.451Z,3.90
2023-05-14T10:26:31.078Z,4.10
2023-05-14T10:28:59.875Z,4.32
2023-05-14T10:31:47.651Z,3.75
2023-05-14T10:34:35.142Z,3.95
2023-05-14T10:37:05.491Z,3.97
2023-05-14T10:39:54.150Z,3.88
2023-05-14T10:42:40.938Z,8.30
2023-05-14T10:45:14.767Z,4.65
2023-05-14T10:47:45.533Z,4.10
2023-05-14T10:50:15.983Z,4.05
2023-05-14T10:52:45.700Z,3.80
2023-05-14T10:55:16.436Z,4.25
2023-05-14T10:57:46.774Z,5.35
2023-05-14T11:00:17.899Z,3.70
2023-05-14T11:02:47.150Z,3.83
2023-05-14T11:05:17.978Z,3.95
2023-05-14T11:07:50.089Z,4.95
2023-05-14T11:10:26.276Z,3.92
2023-05-14T11:12:59.188Z,3.63
2023-05-14T11:27:25.874Z,4.00
2023-05-14T11:29:31.765Z,4.07
2023-05-14T11:32:37.969Z,4.93
2023-05-14T11:38:54.722Z,4.30
2023-05-14T11:41:28.252Z,3.60
2023-05-14T11:44:25.307Z,3.78
2023-05-14T11:50:14.508Z,4.07
2023-05-14T11:54:05.284Z,3.72
2023-05-14T11:58:34.636Z,3.92
2023-05-14T12:00:00.332Z,4.10
2023-05-14T12:29:17.161Z,4.60
2023-05-14T12:33:02.784Z,4.18
2023-05-14T12:36:22.245Z,4.30
2023-05-14T12:54:45.893Z,4.53
2023-05-14T12:57:14.290Z,4.03
2023-05-14T12:59:43.363Z,4.35
2023-05-14T13:02:11.701Z,4.00
2023-05-14T13:04:49.623Z,4.65
2023-05-14T13:07:22.572Z,4.00
2023-05-14T13:09:51.433Z,3.80
2023-05-14T13:12:20.004Z,3.78
2023-05-14T13:14:52.968Z,4.13
2023-05-14T13:17:21.436Z,3.90
2023-05-14T13:19:49.909Z,3.70
2023-05-14T13:22:19.102Z,4.32
2023-05-14T13:24:47.817Z,3.80
2023-05-14T13:27:16.238Z,4.40
2023-05-14T13:29:45.156Z,4.32
2023-05-14T13:32:13.392Z,4.10
2023-05-14T13:34:44.233Z,5.00
2023-05-14T13:37:12.629Z,3.80
2023-05-14T13:39:44.862Z,4.03
2023-05-14T13:42:13.133Z,3.80
2023-05-14T13:44:41.696Z,4.32
2023-05-14T13:47:10.161Z,4.57
2023-05-14T13:49:41.596Z,4.00
2023-05-14T13:52:09.896Z,4.15
2023-05-14T13:54:38.579Z,4.00
2023-05-14T13:57:06.892Z,7.28
2023-05-14T13:59:52.570Z,3.92
2023-05-14T14:02:23.741Z,4.18
2023-05-14T14:04:52.849Z,4.90
2023-05-14T14:07:24.402Z,5.65
2023-05-14T14:09:53.109Z,4.40
2023-05-14T14:12:22.918Z,3.88
2023-05-14T14:14:53.796Z,3.83
2023-05-14T14:17:22.224Z,4.00
2023-05-14T14:19:50.952Z,4.00
2023-05-14T14:22:20.041Z,4.35
2023-05-14T14:24:48.634Z,4.25
2023-05-14T14:27:17.108Z,4.28
2023-05-14T14:29:45.840Z,4.15
2023-05-14T14:32:14.170Z,4.00
2023-05-14T14:34:42.858Z,4.40
2023-05-14T14:37:36.115Z,3.95
2023-05-14T14:40:07.372Z,3.75
2023-05-14T14:42:38.109Z,4.70
2023-05-14T14:45:07.662Z,3.67
2023-05-14T14:47:36.648Z,5.30
2023-05-14T14:50:06.750Z,4.20
2023-05-14T14:52:36.951Z,4.18
2023-05-14T14:55:16.539Z,4.30
2023-05-14T14:57:48.282Z,5.60
2023-05-14T15:01:11.218Z,5.95
2023-05-14T15:03:49.857Z,5.40
2023-05-14T15:06:22.500Z,9.88
2023-05-14T15:08:52.197Z,4.50
2023-05-14T15:11:48.727Z,4.60
2023-05-14T15:14:57.075Z,4.82
2023-05-14T15:17:51.558Z,4.63
2023-05-14T15:20:20.159Z,4.28
2023-05-14T15:22:53.780Z,5.30
2023-05-14T15:25:24.419Z,6.05
2023-05-14T15:27:55.055Z,5.43
2023-05-14T15:30:23.703Z,5.20
2023-05-14T15:33:19.628Z,4.28
2023-05-14T15:41:48.182Z,4.70
2023-05-14T15:44:16.904Z,4.60
2023-05-14T15:46:52.819Z,4.55
2023-05-14T15:50:37.014Z,6.18
2023-05-14T15:58:46.328Z,7.97
2023-05-14T16:13:01.037Z,5.55
2023-05-14T16:15:29.689Z,4.65
2023-05-14T16:17:58.005Z,4.55
2023-05-14T16:20:26.636Z,5.10
2023-05-14T16:22:54.903Z,4.38
2023-05-14T16:25:23.537Z,4.20
2023-05-14T16:27:51.801Z,4.13
2023-05-14T16:30:20.301Z,4.93
2023-05-14T16:33:00.126Z,4.57
2023-05-14T16:35:28.839Z,5.00
2023-05-14T16:39:12.057Z,4.47
2023-05-14T16:41:41.330Z,3.92
2023-05-14T16:44:09.665Z,4.13
2023-05-14T16:46:38.450Z,4.10
2023-05-14T16:49:06.900Z,6.55
2023-05-14T16:51:36.739Z,4.38
2023-05-14T16:54:05.107Z,4.05
2023-05-14T16:56:33.713Z,4.50
2023-05-14T16:59:02.182Z,4.43
2023-05-14T17:01:31.732Z,5.53
2023-05-14T17:04:00.443Z,5.03
2023-05-14T17:06:32.019Z,4.60
2023-05-14T17:09:00.361Z,4.72
2023-05-14T17:11:30.835Z,4.97
2023-05-14T17:14:01.988Z,5.20
2023-05-14T17:16:31.189Z,5.68
2023-05-14T17:18:59.821Z,5.45
2023-05-14T17:21:31.750Z,7.32
2023-05-14T17:24:00.672Z,5.00
2023-05-14T17:26:30.288Z,5.95
2023-05-14T17:28:58.509Z,6.55
2023-05-14T17:31:27.130Z,6.57
2023-05-14T17:33:55.439Z,6.93
2023-05-14T17:36:24.215Z,6.95
2023-05-14T17:38:52.683Z,7.43
2023-05-14T17:41:21.808Z,6.70
2023-05-14T17:43:52.558Z,7.32
2023-05-14T17:46:21.628Z,7.82
2023-05-14T17:48:50.105Z,8.10
2023-05-14T17:51:18.799Z,8.73
2023-05-14T17:53:47.566Z,9.43
2023-05-14T17:56:18.567Z,10.90
2023-05-14T17:58:49.943Z,12.07
2023-05-14T18:01:19.120Z,10.95
2023-05-14T18:03:47.791Z,8.95
2023-05-14T18:06:33.352Z,9.85
2023-05-14T18:09:02.306Z,8.63
2023-05-14T18:11:34.011Z,10.60
2023-05-14T18:14:02.681Z,11.60
2023-05-14T18:16:36.916Z,12.02
2023-05-14T18:19:07.894Z,13.35
2023-05-14T18:21:36.785Z,13.88
2023-05-14T18:27:56.741Z,12.55
2023-05-14T18:31:11.619Z,12.30
2023-05-14T18:34:05.432Z,11.70
2023-05-14T18:37:00.754Z,11.25
2023-05-14T18:39:51.068Z,10.82
2023-05-14T18:47:46.435Z,12.73
2023-05-14T18:51:04.203Z,28.27
2023-05-14T18:53:40.182Z,16.98
2023-05-14T18:56:09.692Z,13.88
2023-05-14T18:58:39.779Z,14.43
2023-05-14T19:01:14.565Z,14.43
2023-05-14T19:04:50.774Z,14.63
2023-05-14T19:07:50.942Z,12.18
2023-05-14T19:10:34.783Z,12.48
2023-05-14T19:13:03.720Z,13.38
2023-05-14T19:15:35.196Z,12.80
2023-05-14T19:18:08.193Z,13.13
2023-05-14T19:20:36.667Z,14.23
2023-05-14T19:23:14.808Z,13.20
2023-05-14T19:25:53.500Z,13.85
2023-05-14T19:29:21.032Z,13.20
2023-05-14T19:31:44.015Z,13.45
2023-05-14T19:34:12.849Z,12.13
2023-05-14T19:37:21.621Z,12.27
2023-05-14T19:43:01.049Z,12.32
2023-05-14T19:46:16.836Z,10.13
2023-05-14T19:48:56.967Z,10.73
2023-05-14T19:51:27.056Z,10.75
2023-05-14T19:54:32.242Z,13.10
2023-05-14T19:57:16.592Z,15.23
2023-05-14T19:59:45.758Z,19.58
2023-05-14T20:02:24.865Z,18.38
2023-05-14T20:04:55.621Z,14.40
2023-05-14T20:07:29.269Z,11.93
2023-05-14T20:10:21.726Z,13.45
2023-05-14T20:12:50.122Z,12.70
2023-05-14T20:15:18.824Z,13.23
2023-05-14T20:17:47.482Z,21.23
2023-05-14T20:20:18.006Z,17.70
2023-05-14T20:22:46.398Z,19.25
2023-05-14T20:25:17.337Z,17.23
2023-05-14T20:27:45.685Z,17.23
2023-05-14T20:30:14.372Z,17.08
2023-05-14T20:32:43.204Z,17.63
2023-05-14T20:35:11.840Z,17.58
2023-05-14T20:37:40.537Z,17.50
2023-05-14T20:40:12.810Z,16.88
2023-05-14T20:45:10.552Z,16.80
2023-05-14T20:47:40.419Z,16.30
2023-05-14T20:50:09.444Z,17.58
2023-05-14T20:52:37.820Z,15.50
2023-05-14T20:55:07.770Z,15.25
2023-05-14T20:57:37.326Z,13.52
2023-05-14T21:00:09.331Z,13.25
2023-05-14T21:02:38.090Z,13.68
2023-05-14T21:05:08.510Z,11.63
2023-05-14T21:07:37.480Z,12.32
2023-05-14T21:10:08.078Z,14.63
2023-05-14T21:12:36.380Z,13.82
2023-05-14T21:15:05.969Z,13.00
2023-05-14T21:17:34.302Z,12.63
2023-05-14T21:20:02.980Z,13.55
2023-05-14T21:22:31.321Z,12.82
2023-05-14T21:24:59.865Z,13.40
2023-05-14T21:27:28.204Z,13.60
2023-05-14T21:29:56.820Z,13.35
2023-05-14T21:32:25.706Z,15.38
2023-05-14T21:34:54.285Z,14.15
2023-05-14T21:37:22.699Z,13.18
2023-05-14T21:39:51.298Z,14.00
2023-05-14T21:42:21.265Z,14.07
2023-05-14T21:44:49.863Z,12.80
2023-05-14T21:47:18.336Z,10.68
2023-05-14T21:49:48.451Z,9.77
2023-05-14T21:52:16.720Z,12.68
2023-05-14T21:54:45.216Z,13.82
2023-05-14T21:57:13.501Z,14.80
2023-05-14T21:59:42.108Z,13.93
2023-05-14T22:02:10.362Z,13.10
2023-05-14T22:04:39.032Z,13.00
2023-05-14T22:07:07.352Z,13.38
2023-05-14T22:09:35.929Z,13.65
2023-05-14T22:12:05.136Z,14.50
2023-05-14T22:14:33.728Z,13.02
2023-05-14T22:17:02.011Z,13.38
2023-05-14T22:19:31.197Z,13.07
2023-05-14T22:21:59.518Z,13.38
2023-05-14T22:24:28.086Z,13.02
2023-05-14T22:26:56.416Z,12.93
2023-05-14T22:29:24.989Z,12.70
2023-05-14T22:31:53.268Z,13.07
2023-05-14T22:34:23.187Z,13.10
2023-05-14T22:36:51.449Z,13.25
2023-05-14T22:39:19.970Z,14.02
2023-05-14T22:41:54.888Z,13.23
2023-05-14T22:44:23.954Z,13.45
2023-05-14T22:46:52.467Z,14.07
2023-05-14T22:49:21.186Z,13.75
2023-05-14T22:51:52.613Z,14.43
2023-05-14T22:54:21.477Z,14.50
2023-05-14T22:56:49.943Z,18.45
2023-05-14T22:59:18.526Z,19.58
2023-05-14T23:01:46.873Z,20.23
2023-05-14T23:04:15.533Z,23.65
2023-05-14T23:06:43.857Z,23.27
2023-05-14T23:09:12.420Z,20.67
2023-05-14T23:11:41.936Z,16.13
2023-05-14T23:14:10.555Z,12.60
2023-05-14T23:16:38.840Z,13.20
2023-05-14T23:19:07.501Z,11.85
2023-05-14T23:21:36.497Z,10.13
2023-05-14T23:24:05.317Z,11.57
2023-05-14T23:26:33.654Z,11.88
2023-05-14T23:29:02.209Z,12.05
2023-05-14T23:31:30.579Z,11.68
2023-05-14T23:33:59.442Z,12.65
2023-05-14T23:36:31.428Z,13.13
2023-05-14T23:39:00.063Z,12.68
2023-05-14T23:41:28.297Z,14.52
2023-05-14T23:43:56.826Z,12.98
2023-05-14T23:46:25.195Z,12.95
2023-05-14T23:48:57.115Z,12.48
2023-05-14T23:51:27.473Z,12.27
2023-05-14T23:53:58.819Z,13.30
2023-05-14T23:56:29.385Z,13.02
2023-05-14T23:58:58.170Z,12.60
